Time;durP1;ratioP1;P1;durP2;ratioP2;P2;SDS_P1;SDS_P2;PMS_P1;PMS_P2;Temp;Humidity;BMP_temperature;BMP_pressure;BME280_temperature;BME280_humidity;BME280_pressure;Samples;Min_cycle;Max_cycle;Signal;HPM_P1;HPM_P2
2023/05/13 00:00:33;;;;;;;;;;;17.10;99.90;;;;;;8329626;28;20274;-75
2023/05/13 00:04:35;;;;;;;;;;;17.10;99.90;;;;;;8315167;28;19929;-75
2023/05/13 00:08:37;;;;;;;;;;;17.00;99.90;;;;;;8316446;28;20039;-75
2023/05/13 00:12:38;;;;;;;;;;;17.00;99.90;;;;;;8323455;28;19960;-75
2023/05/13 00:16:40;;;;;;;;;;;17.00;99.90;;;;;;8327118;28;19972;-75
2023/05/13 00:20:42;;;;;;;;;;;16.90;99.90;;;;;;8330818;28;19925;-76
2023/05/13 00:24:43;;;;;;;;;;;16.90;99.90;;;;;;8321211;28;19925;-75
2023/05/13 00:28:45;;;;;;;;;;;16.90;99.90;;;;;;8331027;28;20003;-76
2023/05/13 00:32:46;;;;;;;;;;;16.80;99.90;;;;;;8313707;28;20389;-75
2023/05/13 00:36:48;;;;;;;;;;;16.80;99.90;;;;;;8317392;28;20301;-76
2023/05/13 00:40:50;;;;;;;;;;;16.70;99.90;;;;;;8330488;28;19967;-76
2023/05/13 00:44:51;;;;;;;;;;;16.70;99.90;;;;;;8323476;28;19929;-75
2023/05/13 00:48:53;;;;;;;;;;;16.60;99.90;;;;;;8330104;28;19925;-75
2023/05/13 00:52:56;;;;;;;;;;;16.60;99.90;;;;;;8322349;28;19929;-76
2023/05/13 00:56:58;;;;;;;;;;;16.50;99.90;;;;;;8329708;28;19963;-76
2023/05/13 01:00:59;;;;;;;;;;;16.40;99.90;;;;;;8383559;28;20359;-75
2023/05/13 01:05:07;;;;;;;;;;;16.40;99.90;;;;;;8361767;28;20292;-75
2023/05/13 01:09:32;;;;;;;;;;;16.30;99.90;;;;;;8379086;28;20023;-76
2023/05/13 01:13:37;;;;;;;;;;;16.30;99.90;;;;;;8383610;28;19929;-75
2023/05/13 01:17:44;;;;;;;;;;;16.30;99.90;;;;;;8353526;28;19924;-75
2023/05/13 01:21:52;;;;;;;;;;;16.20;99.90;;;;;;8378769;28;19925;-75
2023/05/13 01:25:54;;;;;;;;;;;16.10;99.90;;;;;;8382213;28;19939;-75
2023/05/13 01:29:56;;;;;;;;;;;16.10;99.90;;;;;;8386305;28;20011;-76
2023/05/13 01:33:58;;;;;;;;;;;16.00;99.90;;;;;;8381994;28;19979;-75
2023/05/13 01:38:01;;;;;;;;;;;16.00;99.90;;;;;;8387268;28;19924;-75
2023/05/13 01:42:03;;;;;;;;;;;16.00;99.90;;;;;;8383311;28;19931;-76
2023/05/13 01:46:10;;;;;;;;;;;15.90;99.90;;;;;;8363232;28;19928;-75
2023/05/13 01:50:12;;;;;;;;;;;15.90;99.90;;;;;;8385938;28;20181;-75
2023/05/13 01:54:13;;;;;;;;;;;15.80;99.90;;;;;;8379471;28;19935;-75
2023/05/13 01:58:15;;;;;;;;;;;15.80;99.90;;;;;;8382210;28;20372;-75
2023/05/13 02:02:16;;;;;;;;;;;15.70;99.90;;;;;;8386310;28;19924;-75
2023/05/13 02:06:18;;;;;;;;;;;15.70;99.90;;;;;;8375097;28;20375;-75
2023/05/13 02:10:20;;;;;;;;;;;15.70;99.90;;;;;;8384878;28;19924;-75
2023/05/13 02:14:22;;;;;;;;;;;15.60;99.90;;;;;;8384568;28;19932;-75
2023/05/13 02:18:23;;;;;;;;;;;15.50;99.90;;;;;;8361828;28;19925;-75
2023/05/13 02:22:25;;;;;;;;;;;15.50;99.90;;;;;;8376537;28;19928;-75
2023/05/13 02:26:27;;;;;;;;;;;15.40;99.90;;;;;;8378589;28;19928;-75
2023/05/13 02:30:28;;;;;;;;;;;15.40;99.90;;;;;;8370813;28;19946;-75
2023/05/13 02:34:30;;;;;;;;;;;15.30;99.90;;;;;;8382308;28;20285;-75
2023/05/13 02:38:32;;;;;;;;;;;15.30;99.90;;;;;;8386420;28;19929;-76
2023/05/13 02:42:33;;;;;;;;;;;15.20;99.90;;;;;;8359997;28;19932;-75
2023/05/13 02:46:35;;;;;;;;;;;15.20;99.90;;;;;;8381619;28;20297;-75
2023/05/13 02:50:38;;;;;;;;;;;15.10;99.90;;;;;;8376837;28;20331;-76
2023/05/13 02:54:39;;;;;;;;;;;15.10;99.90;;;;;;8363165;28;19924;-75
2023/05/13 02:58:41;;;;;;;;;;;15.00;99.90;;;;;;8364473;28;19925;-75
2023/05/13 03:02:43;;;;;;;;;;;15.00;99.90;;;;;;8380889;28;20380;-75
2023/05/13 03:06:46;;;;;;;;;;;15.00;99.90;;;;;;8369219;28;19968;-75
2023/05/13 03:10:47;;;;;;;;;;;14.90;99.90;;;;;;8370092;28;19925;-75
2023/05/13 03:14:49;;;;;;;;;;;14.80;99.90;;;;;;8381283;28;20059;-75
2023/05/13 03:18:51;;;;;;;;;;;14.80;99.90;;;;;;8402423;28;19936;-75
2023/05/13 03:22:52;;;;;;;;;;;14.70;99.90;;;;;;8386966;28;19924;-75
2023/05/13 03:26:54;;;;;;;;;;;14.70;99.90;;;;;;8363974;28;20092;-75
2023/05/13 03:30:56;;;;;;;;;;;14.70;99.90;;;;;;8387664;28;19931;-75
2023/05/13 03:34:59;;;;;;;;;;;14.60;99.90;;;;;;8388516;28;19924;-75
2023/05/13 03:39:01;;;;;;;;;;;14.60;99.90;;;;;;8367559;28;19929;-75
2023/05/13 03:43:03;;;;;;;;;;;14.50;99.90;;;;;;8383430;28;19970;-75
2023/05/13 03:47:05;;;;;;;;;;;14.50;99.90;;;;;;8363049;28;19925;-75
2023/05/13 03:51:06;;;;;;;;;;;14.50;99.90;;;;;;8365674;28;20354;-77
2023/05/13 03:55:08;;;;;;;;;;;14.40;99.90;;;;;;8391513;28;19932;-77
2023/05/13 03:59:10;;;;;;;;;;;14.40;99.90;;;;;;8387235;28;19933;-77
2023/05/13 04:03:12;;;;;;;;;;;14.40;99.90;;;;;;8386085;28;19924;-78
2023/05/13 04:07:13;;;;;;;;;;;14.30;99.90;;;;;;8381986;28;19924;-77
2023/05/13 04:11:15;;;;;;;;;;;14.30;99.90;;;;;;8392469;28;19924;-77
2023/05/13 04:15:17;;;;;;;;;;;14.30;99.90;;;;;;8393073;28;20407;-77
2023/05/13 04:19:19;;;;;;;;;;;14.30;99.90;;;;;;8393702;28;20311;-77
2023/05/13 04:23:21;;;;;;;;;;;14.30;99.90;;;;;;8362650;28;19935;-77
2023/05/13 04:27:23;;;;;;;;;;;14.30;99.90;;;;;;8374425;28;19962;-77
2023/05/13 04:31:24;;;;;;;;;;;14.30;99.90;;;;;;8382436;28;19932;-77
2023/05/13 04:35:26;;;;;;;;;;;14.30;99.90;;;;;;8377658;28;20368;-77
2023/05/13 04:39:28;;;;;;;;;;;14.30;99.90;;;;;;8388591;28;20352;-77
2023/05/13 04:43:30;;;;;;;;;;;14.40;99.90;;;;;;8374347;28;19928;-77
2023/05/13 04:47:36;;;;;;;;;;;14.40;99.90;;;;;;8369976;28;19935;-77
2023/05/13 04:51:38;;;;;;;;;;;14.40;99.90;;;;;;8368817;28;19932;-77
2023/05/13 04:55:40;;;;;;;;;;;14.50;99.90;;;;;;8388113;28;20384;-77
2023/05/13 04:59:42;;;;;;;;;;;14.50;99.90;;;;;;8372649;28;19924;-77
2023/05/13 05:03:44;;;;;;;;;;;14.60;99.90;;;;;;8387848;28;20014;-77
2023/05/13 05:07:45;;;;;;;;;;;14.60;99.90;;;;;;8369213;28;19959;-77
2023/05/13 05:11:49;;;;;;;;;;;14.70;99.90;;;;;;8371655;28;19928;-77
2023/05/13 05:15:51;;;;;;;;;;;14.70;99.90;;;;;;8391396;28;20238;-77
2023/05/13 05:19:52;;;;;;;;;;;14.80;99.90;;;;;;8391956;28;19924;-77
2023/05/13 05:23:54;;;;;;;;;;;14.80;99.90;;;;;;8390524;28;19963;-77
2023/05/13 05:27:56;;;;;;;;;;;14.90;99.90;;;;;;8393208;28;20280;-77
2023/05/13 05:31:57;;;;;;;;;;;15.00;99.90;;;;;;8371901;28;19924;-76
2023/05/13 05:35:59;;;;;;;;;;;15.00;99.90;;;;;;8386103;28;19928;-77
2023/05/13 05:40:01;;;;;;;;;;;15.10;99.90;;;;;;8384374;28;20009;-77
2023/05/13 05:44:02;;;;;;;;;;;15.20;99.90;;;;;;8381093;28;19924;-76
2023/05/13 05:48:05;;;;;;;;;;;15.20;99.90;;;;;;8391463;28;19932;-77
2023/05/13 05:52:09;;;;;;;;;;;15.30;99.90;;;;;;8388299;28;19924;-76
2023/05/13 05:56:11;;;;;;;;;;;15.40;99.90;;;;;;8376277;28;19931;-77
2023/05/13 06:00:13;;;;;;;;;;;15.50;99.90;;;;;;8377701;28;19975;-77
2023/05/13 06:04:16;;;;;;;;;;;15.60;99.90;;;;;;8365905;28;19947;-76
2023/05/13 06:08:17;;;;;;;;;;;15.70;99.90;;;;;;8378200;28;19931;-76
2023/05/13 06:12:19;;;;;;;;;;;15.70;99.90;;;;;;8395724;28;19935;-77
2023/05/13 06:16:21;;;;;;;;;;;15.90;99.90;;;;;;8385485;28;19982;-76
2023/05/13 06:20:22;;;;;;;;;;;16.00;99.90;;;;;;8385317;28;19928;-76
2023/05/13 06:24:24;;;;;;;;;;;16.10;99.90;;;;;;8381958;28;20406;-77
2023/05/13 06:28:26;;;;;;;;;;;16.20;99.90;;;;;;8385989;28;19924;-77
2023/05/13 06:32:28;;;;;;;;;;;16.30;99.90;;;;;;8366235;28;19925;-77
2023/05/13 06:36:29;;;;;;;;;;;16.40;99.90;;;;;;8379987;28;19939;-77
2023/05/13 06:40:32;;;;;;;;;;;16.50;99.90;;;;;;8387171;28;19924;-77
2023/05/13 06:44:33;;;;;;;;;;;16.60;99.90;;;;;;8389028;28;20394;-77
2023/05/13 06:48:35;;;;;;;;;;;16.70;99.90;;;;;;8389137;28;19950;-76
2023/05/13 06:52:37;;;;;;;;;;;16.80;99.90;;;;;;8389521;28;20387;-77
2023/05/13 06:56:40;;;;;;;;;;;16.90;99.90;;;;;;8382304;28;19929;-77
2023/05/13 07:00:42;;;;;;;;;;;17.00;99.90;;;;;;8391406;28;19925;-77
2023/05/13 07:04:43;;;;;;;;;;;17.20;99.90;;;;;;8384473;28;19938;-77
2023/05/13 07:08:45;;;;;;;;;;;17.30;99.90;;;;;;8388420;28;19924;-77
2023/05/13 07:12:47;;;;;;;;;;;17.40;99.90;;;;;;8382809;28;19928;-77
2023/05/13 07:16:48;;;;;;;;;;;17.60;99.90;;;;;;8370966;28;20372;-77
2023/05/13 07:20:50;;;;;;;;;;;17.70;99.90;;;;;;8369256;28;19935;-77
2023/05/13 07:24:52;;;;;;;;;;;17.90;99.90;;;;;;8369913;28;20299;-77
2023/05/13 07:28:55;;;;;;;;;;;17.90;99.90;;;;;;8385003;28;19925;-77
2023/05/13 07:32:56;;;;;;;;;;;18.00;99.90;;;;;;8392901;28;20436;-77
2023/05/13 07:36:58;;;;;;;;;;;18.20;99.90;;;;;;8394812;28;19940;-77
2023/05/13 07:41:00;;;;;;;;;;;18.30;99.90;;;;;;8380724;28;19955;-77
2023/05/13 07:45:02;;;;;;;;;;;18.40;99.90;;;;;;8377203;28;19929;-77
2023/05/13 07:49:05;;;;;;;;;;;18.50;99.90;;;;;;8375275;28;19975;-77
2023/05/13 07:53:07;;;;;;;;;;;18.60;99.90;;;;;;8399341;28;19931;-78
2023/05/13 07:57:09;;;;;;;;;;;18.70;99.90;;;;;;8373288;28;19971;-78
2023/05/13 08:01:13;;;;;;;;;;;18.80;99.90;;;;;;8403638;28;20023;-78
2023/05/13 08:05:16;;;;;;;;;;;18.80;99.90;;;;;;8369263;28;19932;-78
2023/05/13 08:09:18;;;;;;;;;;;18.90;99.90;;;;;;8395674;28;19939;-78
2023/05/13 08:13:20;;;;;;;;;;;19.00;99.90;;;;;;8394834;28;19983;-77
2023/05/13 08:17:22;;;;;;;;;;;19.10;99.90;;;;;;8374696;28;19932;-77
2023/05/13 08:21:24;;;;;;;;;;;19.20;99.90;;;;;;8371917;28;19928;-78
2023/05/13 08:25:25;;;;;;;;;;;19.20;99.90;;;;;;8383909;28;19931;-78
2023/05/13 08:29:27;;;;;;;;;;;19.20;99.90;;;;;;8373426;28;19925;-77
2023/05/13 08:33:29;;;;;;;;;;;19.30;99.90;;;;;;8379235;28;19935;-77
2023/05/13 08:37:31;;;;;;;;;;;19.30;99.90;;;;;;8398323;28;19928;-78
2023/05/13 08:41:33;;;;;;;;;;;19.30;99.90;;;;;;8385414;28;19931;-78
2023/05/13 08:45:36;;;;;;;;;;;19.40;99.90;;;;;;8388871;28;19929;-78
2023/05/13 08:49:38;;;;;;;;;;;19.50;99.90;;;;;;8395996;28;19925;-78
2023/05/13 08:53:40;;;;;;;;;;;19.60;99.90;;;;;;8372291;28;19932;-78
2023/05/13 08:57:41;;;;;;;;;;;19.70;99.90;;;;;;8369727;28;19936;-78
2023/05/13 09:01:44;;;;;;;;;;;19.80;99.90;;;;;;8402135;28;19930;-78
2023/05/13 09:05:46;;;;;;;;;;;19.90;99.90;;;;;;8370938;28;20371;-78
2023/05/13 09:09:47;;;;;;;;;;;20.00;99.90;;;;;;8369139;28;19971;-78
2023/05/13 09:13:59;;;;;;;;;;;20.10;99.90;;;;;;8372727;28;19929;-78
2023/05/13 09:18:04;;;;;;;;;;;20.10;99.90;;;;;;8354814;28;19929;-78
2023/05/13 09:22:15;;;;;;;;;;;20.20;99.90;;;;;;8376020;28;19974;-78
2023/05/13 09:26:27;;;;;;;;;;;20.20;99.90;;;;;;8376313;28;19925;-78
2023/05/13 09:30:31;;;;;;;;;;;20.20;99.90;;;;;;8379076;28;20024;-78
2023/05/13 09:34:33;;;;;;;;;;;20.20;99.90;;;;;;8374385;28;19932;-76
2023/05/13 09:38:37;;;;;;;;;;;20.30;99.90;;;;;;8376212;28;19970;-76
2023/05/13 09:42:41;;;;;;;;;;;20.40;99.90;;;;;;8361887;28;19987;-76
2023/05/13 09:46:43;;;;;;;;;;;20.40;99.90;;;;;;8360060;28;20032;-77
2023/05/13 09:50:48;;;;;;;;;;;20.50;99.90;;;;;;8368626;28;19925;-76
2023/05/13 09:54:50;;;;;;;;;;;20.50;99.90;;;;;;8366543;28;19924;-77
2023/05/13 09:58:52;;;;;;;;;;;20.60;99.90;;;;;;8364263;28;19929;-76
2023/05/13 10:02:54;;;;;;;;;;;20.70;99.90;;;;;;8364567;28;20441;-76
2023/05/13 10:06:57;;;;;;;;;;;20.90;99.90;;;;;;8363112;28;19925;-76
2023/05/13 10:10:58;;;;;;;;;;;21.00;99.90;;;;;;8344777;28;20031;-76
2023/05/13 10:15:00;;;;;;;;;;;21.10;99.90;;;;;;8368525;28;19990;-76
2023/05/13 10:19:03;;;;;;;;;;;21.20;99.90;;;;;;8355650;28;20023;-76
2023/05/13 10:23:05;;;;;;;;;;;21.20;99.90;;;;;;8366029;28;19951;-76
2023/05/13 10:27:09;;;;;;;;;;;21.30;99.90;;;;;;8368842;28;20345;-76
2023/05/13 10:31:11;;;;;;;;;;;21.40;99.90;;;;;;8343827;28;19983;-76
2023/05/13 10:35:17;;;;;;;;;;;21.40;99.90;;;;;;8364701;28;19979;-76
2023/05/13 10:39:34;;;;;;;;;;;21.50;99.90;;;;;;8358739;28;19924;-76
2023/05/13 10:43:36;;;;;;;;;;;21.60;99.90;;;;;;8380811;28;19932;-76
2023/05/13 10:47:38;;;;;;;;;;;21.70;99.90;;;;;;8363988;28;19933;-76
2023/05/13 10:51:43;;;;;;;;;;;21.70;99.90;;;;;;8367366;28;19928;-75
2023/05/13 10:55:45;;;;;;;;;;;21.80;99.90;;;;;;8365462;28;19994;-76
2023/05/13 11:00:10;;;;;;;;;;;21.80;99.90;;;;;;8364389;28;19935;-75
2023/05/13 11:04:16;;;;;;;;;;;21.90;99.90;;;;;;8362956;28;20304;-75
2023/05/13 11:08:37;;;;;;;;;;;21.90;99.90;;;;;;8362230;28;19925;-75
2023/05/13 11:12:39;;;;;;;;;;;22.10;99.90;;;;;;8344913;28;19932;-75
2023/05/13 11:17:05;;;;;;;;;;;22.10;99.90;;;;;;8367881;28;19938;-75
2023/05/13 11:21:07;;;;;;;;;;;22.20;99.90;;;;;;8355295;28;19975;-76
2023/05/13 11:25:09;;;;;;;;;;;22.30;99.90;;;;;;8364625;28;20006;-76
2023/05/13 11:29:11;;;;;;;;;;;22.40;99.90;;;;;;8347905;28;20392;-76
2023/05/13 11:33:12;;;;;;;;;;;22.50;99.90;;;;;;8352941;28;19939;-76
2023/05/13 11:37:14;;;;;;;;;;;22.60;99.90;;;;;;8368822;28;20301;-75
2023/05/13 11:41:16;;;;;;;;;;;22.80;99.90;;;;;;8347085;28;19947;-78
2023/05/13 11:45:19;;;;;;;;;;;22.90;99.90;;;;;;8347828;28;19931;-76
2023/05/13 11:49:35;;;;;;;;;;;22.90;99.90;;;;;;8347001;28;20428;-76
2023/05/13 11:53:36;;;;;;;;;;;22.90;99.90;;;;;;8362918;28;19971;-76
2023/05/13 11:57:38;;;;;;;;;;;23.00;99.90;;;;;;8368082;28;19936;-76
2023/05/13 12:01:39;;;;;;;;;;;23.00;99.90;;;;;;8356423;28;19932;-76
2023/05/13 12:05:43;;;;;;;;;;;23.10;99.90;;;;;;8372167;28;19928;-76
2023/05/13 12:09:45;;;;;;;;;;;23.00;99.90;;;;;;8355742;28;20394;-76
2023/05/13 12:13:46;;;;;;;;;;;23.10;99.90;;;;;;8357065;28;19964;-76
2023/05/13 12:17:48;;;;;;;;;;;23.20;99.90;;;;;;8362464;28;19932;-76
2023/05/13 12:21:50;;;;;;;;;;;23.20;99.90;;;;;;8359894;28;19925;-75
2023/05/13 12:25:52;;;;;;;;;;;23.20;99.90;;;;;;8357579;28;19931;-75
2023/05/13 12:29:54;;;;;;;;;;;23.30;99.90;;;;;;8369740;28;21411;-76
2023/05/13 12:33:56;;;;;;;;;;;23.30;99.90;;;;;;8371640;28;19925;-76
2023/05/13 12:38:04;;;;;;;;;;;23.20;99.90;;;;;;8366884;28;19932;-75
2023/05/13 12:42:12;;;;;;;;;;;23.20;99.90;;;;;;8364336;28;20356;-75
2023/05/13 12:46:14;;;;;;;;;;;23.20;99.90;;;;;;8379464;28;19925;-75
2023/05/13 12:50:15;;;;;;;;;;;23.00;99.90;;;;;;8371545;28;20245;-75
2023/05/13 12:54:17;;;;;;;;;;;22.90;99.90;;;;;;8369659;28;20287;-80
2023/05/13 12:58:19;;;;;;;;;;;22.80;99.90;;;;;;8357567;28;20299;-76
2023/05/13 13:02:20;;;;;;;;;;;22.70;99.90;;;;;;8359332;28;20024;-75
2023/05/13 13:06:22;;;;;;;;;;;22.60;99.90;;;;;;8368138;28;19935;-75
2023/05/13 13:10:24;;;;;;;;;;;22.70;99.90;;;;;;8367457;28;19932;-75
2023/05/13 13:14:25;;;;;;;;;;;22.80;99.90;;;;;;8362402;28;20082;-75
2023/05/13 13:18:27;;;;;;;;;;;22.80;99.90;;;;;;8388456;28;19975;-74
2023/05/13 13:22:29;;;;;;;;;;;22.90;99.90;;;;;;8390897;28;20434;-75
2023/05/13 13:26:30;;;;;;;;;;;23.10;99.90;;;;;;8377367;28;19973;-75
2023/05/13 13:30:32;;;;;;;;;;;23.10;99.90;;;;;;8356900;28;20028;-76
2023/05/13 13:34:34;;;;;;;;;;;23.20;99.90;;;;;;8373034;28;19979;-75
2023/05/13 13:38:35;;;;;;;;;;;23.30;99.90;;;;;;8368384;28;20284;-75
2023/05/13 13:42:37;;;;;;;;;;;23.50;99.90;;;;;;8358472;28;19959;-75
2023/05/13 13:46:45;;;;;;;;;;;23.70;99.90;;;;;;8377748;28;19925;-75
2023/05/13 13:50:46;;;;;;;;;;;23.70;99.90;;;;;;8373659;28;19933;-75
2023/05/13 13:54:49;;;;;;;;;;;23.80;99.90;;;;;;8371315;28;20020;-75
2023/05/13 13:58:51;;;;;;;;;;;23.90;99.90;;;;;;8360107;28;20450;-75
2023/05/13 14:02:53;;;;;;;;;;;24.00;99.90;;;;;;8375230;28;20397;-75
2023/05/13 14:06:55;;;;;;;;;;;24.10;99.90;;;;;;8376222;28;20386;-75
2023/05/13 14:10:56;;;;;;;;;;;24.10;99.90;;;;;;8375877;28;19928;-75
2023/05/13 14:14:58;;;;;;;;;;;24.10;99.90;;;;;;8358639;28;20764;-75
2023/05/13 14:19:00;;;;;;;;;;;24.10;99.90;;;;;;8372703;28;19982;-75
2023/05/13 14:23:02;;;;;;;;;;;24.20;99.90;;;;;;8376693;28;19932;-75
2023/05/13 14:27:05;;;;;;;;;;;24.30;99.90;;;;;;8372485;28;20414;-75
2023/05/13 14:31:07;;;;;;;;;;;24.40;99.90;;;;;;8372506;28;20769;-74
2023/05/13 14:35:09;;;;;;;;;;;24.60;99.90;;;;;;8370572;28;19963;-75
2023/05/13 14:39:11;;;;;;;;;;;24.90;99.90;;;;;;8372906;28;19935;-75
2023/05/13 14:43:12;;;;;;;;;;;25.00;99.90;;;;;;8367965;28;20330;-75
2023/05/13 14:47:14;;;;;;;;;;;25.20;99.90;;;;;;8350343;28;20514;-74
2023/05/13 14:51:16;;;;;;;;;;;25.30;99.90;;;;;;8351201;28;20023;-74
2023/05/13 14:55:18;;;;;;;;;;;25.30;99.90;;;;;;8370640;28;19929;-74
2023/05/13 14:59:19;;;;;;;;;;;25.30;99.90;;;;;;8359630;28;19972;-74
2023/05/13 15:03:21;;;;;;;;;;;25.20;99.90;;;;;;8364442;28;19928;-74
2023/05/13 15:07:23;;;;;;;;;;;25.20;99.90;;;;;;8350630;28;19937;-74
2023/05/13 15:11:26;;;;;;;;;;;25.40;99.90;;;;;;8381820;28;20446;-74
2023/05/13 15:15:28;;;;;;;;;;;25.50;99.90;;;;;;8347491;28;19987;-74
2023/05/13 15:19:30;;;;;;;;;;;25.70;99.90;;;;;;8370030;28;19967;-74
2023/05/13 15:23:32;;;;;;;;;;;25.90;99.90;;;;;;8382493;28;19924;-74
2023/05/13 15:27:34;;;;;;;;;;;26.10;99.90;;;;;;8384004;28;19924;-73
2023/05/13 15:31:35;;;;;;;;;;;26.20;99.90;;;;;;8364759;28;19936;-75
2023/05/13 15:35:37;;;;;;;;;;;26.40;99.90;;;;;;8355829;28;19929;-74
2023/05/13 15:39:39;;;;;;;;;;;26.50;99.90;;;;;;8368045;28;19935;-75
2023/05/13 15:43:41;;;;;;;;;;;26.60;99.90;;;;;;8367565;28;19940;-74
2023/05/13 15:47:42;;;;;;;;;;;26.80;99.90;;;;;;8366202;28;19968;-74
2023/05/13 15:51:44;;;;;;;;;;;27.20;99.90;;;;;;8362303;28;20016;-74
2023/05/13 15:55:46;;;;;;;;;;;27.60;99.90;;;;;;8360501;28;20166;-75
2023/05/13 15:59:47;;;;;;;;;;;28.20;99.90;;;;;;8366291;28;19978;-75
2023/05/13 16:03:49;;;;;;;;;;;28.70;99.90;;;;;;8365739;28;19935;-74
2023/05/13 16:07:50;;;;;;;;;;;29.10;99.90;;;;;;8359394;28;19924;-75
2023/05/13 16:11:53;;;;;;;;;;;29.50;99.90;;;;;;8373371;28;19939;-74
2023/05/13 16:15:55;;;;;;;;;;;29.90;99.90;;;;;;8366628;28;19925;-75
2023/05/13 16:19:57;;;;;;;;;;;30.20;99.90;;;;;;8368046;28;19925;-75
2023/05/13 16:23:58;;;;;;;;;;;30.30;99.90;;;;;;8372664;28;19925;-75
2023/05/13 16:28:00;;;;;;;;;;;30.30;99.90;;;;;;8370541;28;19924;-74
2023/05/13 16:32:02;;;;;;;;;;;30.40;99.90;;;;;;8373936;28;19924;-75
2023/05/13 16:36:03;;;;;;;;;;;30.50;99.90;;;;;;8353529;28;19932;-75
2023/05/13 16:40:05;;;;;;;;;;;30.60;99.90;;;;;;8373934;28;19963;-75
2023/05/13 16:44:07;;;;;;;;;;;30.50;99.90;;;;;;8382939;28;19924;-75
2023/05/13 16:48:09;;;;;;;;;;;30.50;99.90;;;;;;8366871;28;19940;-75
2023/05/13 16:52:10;;;;;;;;;;;30.50;99.90;;;;;;8382666;28;20270;-74
2023/05/13 16:56:12;;;;;;;;;;;30.40;99.90;;;;;;8368252;28;19976;-74
2023/05/13 17:00:14;;;;;;;;;;;30.10;99.90;;;;;;8377492;28;19967;-75
2023/05/13 17:04:15;;;;;;;;;;;29.90;99.90;;;;;;8366197;28;19939;-75
2023/05/13 17:08:17;;;;;;;;;;;29.70;99.90;;;;;;8364362;28;19951;-74
2023/05/13 17:12:19;;;;;;;;;;;29.30;99.90;;;;;;8369009;28;19925;-75
2023/05/13 17:16:20;;;;;;;;;;;28.90;99.90;;;;;;8383980;28;19963;-74
2023/05/13 17:20:22;;;;;;;;;;;28.50;99.90;;;;;;8367725;28;19925;-75
2023/05/13 17:24:28;;;;;;;;;;;28.10;99.90;;;;;;8364697;28;19983;-75
2023/05/13 17:28:29;;;;;;;;;;;27.70;99.90;;;;;;8365932;28;20700;-75
2023/05/13 17:32:31;;;;;;;;;;;27.30;99.90;;;;;;8368486;28;19928;-75
2023/05/13 17:36:33;;;;;;;;;;;27.00;99.90;;;;;;8360502;28;19975;-75
2023/05/13 17:40:35;;;;;;;;;;;26.70;99.90;;;;;;8367332;28;20434;-74
2023/05/13 17:44:37;;;;;;;;;;;26.30;99.90;;;;;;8370300;28;20364;-74
2023/05/13 17:48:38;;;;;;;;;;;26.00;99.90;;;;;;8371054;28;19964;-75
2023/05/13 17:52:40;;;;;;;;;;;25.70;99.90;;;;;;8350013;28;19924;-74
2023/05/13 17:56:42;;;;;;;;;;;25.50;99.90;;;;;;8362793;28;19991;-74
2023/05/13 18:00:43;;;;;;;;;;;25.30;99.90;;;;;;8380493;28;19924;-74
2023/05/13 18:04:45;;;;;;;;;;;25.10;99.90;;;;;;8363652;28;19943;-74
2023/05/13 18:08:46;;;;;;;;;;;24.90;99.90;;;;;;8339680;28;19971;-74
2023/05/13 18:12:50;;;;;;;;;;;24.80;99.90;;;;;;8348568;28;19932;-74
2023/05/13 18:16:52;;;;;;;;;;;24.60;99.90;;;;;;8344602;28;20023;-74
2023/05/13 18:20:53;;;;;;;;;;;24.50;99.90;;;;;;8369079;28;20179;-74
2023/05/13 18:24:55;;;;;;;;;;;24.40;99.90;;;;;;8367836;28;19933;-74
2023/05/13 18:28:56;;;;;;;;;;;24.20;99.90;;;;;;8347152;28;20402;-74
2023/05/13 18:32:58;;;;;;;;;;;24.10;99.90;;;;;;8353924;28;20023;-74
2023/05/13 18:47:06;;;;;;;;;;;23.70;99.90;;;;;;8357741;28;19977;-75
2023/05/13 18:51:09;;;;;;;;;;;23.50;99.90;;;;;;8366474;28;19932;-74
2023/05/13 18:55:11;;;;;;;;;;;23.30;99.90;;;;;;8359051;28;19979;-74
2023/05/13 18:59:12;;;;;;;;;;;23.20;99.90;;;;;;8346254;28;19932;-74
2023/05/13 19:03:14;;;;;;;;;;;23.00;99.90;;;;;;8354316;28;19924;-74
2023/05/13 19:07:16;;;;;;;;;;;22.90;99.90;;;;;;8367127;28;20387;-74
2023/05/13 19:11:17;;;;;;;;;;;22.80;99.90;;;;;;8350570;28;20569;-74
2023/05/13 19:15:24;;;;;;;;;;;22.60;99.90;;;;;;8358649;28;19931;-74
2023/05/13 19:19:25;;;;;;;;;;;22.50;99.90;;;;;;8362135;28;20333;-75
2023/05/13 19:23:27;;;;;;;;;;;22.40;99.90;;;;;;8356135;28;19929;-74
2023/05/13 19:27:29;;;;;;;;;;;22.30;99.90;;;;;;8367852;28;19971;-74
2023/05/13 19:31:31;;;;;;;;;;;22.20;99.90;;;;;;8359172;28;19931;-74
2023/05/13 19:35:33;;;;;;;;;;;22.00;99.90;;;;;;8362288;28;19928;-74
2023/05/13 19:39:35;;;;;;;;;;;21.90;99.90;;;;;;8378905;28;19932;-74
2023/05/13 19:43:36;;;;;;;;;;;21.90;99.90;;;;;;8367746;28;19968;-74
2023/05/13 19:47:38;;;;;;;;;;;21.70;99.90;;;;;;8368025;28;19995;-74
2023/05/13 19:51:40;;;;;;;;;;;21.60;99.90;;;;;;8360715;28;19964;-75
2023/05/13 19:55:42;;;;;;;;;;;21.50;99.90;;;;;;8367763;28;20039;-75
2023/05/13 19:59:45;;;;;;;;;;;21.40;99.90;;;;;;8370957;28;19925;-75
2023/05/13 20:03:46;;;;;;;;;;;21.30;99.90;;;;;;8368091;28;20277;-75
2023/05/13 20:07:48;;;;;;;;;;;21.20;99.90;;;;;;8365717;28;19931;-75
2023/05/13 20:11:50;;;;;;;;;;;21.10;99.90;;;;;;8373913;28;20352;-75
2023/05/13 20:15:51;;;;;;;;;;;21.00;99.90;;;;;;8365697;28;20406;-75
2023/05/13 20:19:54;;;;;;;;;;;20.90;99.90;;;;;;8369436;28;19983;-74
2023/05/13 20:23:56;;;;;;;;;;;20.80;99.90;;;;;;8366505;28;19932;-74
2023/05/13 20:27:57;;;;;;;;;;;20.70;99.90;;;;;;8366286;28;19925;-74
2023/05/13 20:31:59;;;;;;;;;;;20.70;99.90;;;;;;8362512;28;20023;-74
2023/05/13 20:36:01;;;;;;;;;;;20.60;99.90;;;;;;8362862;28;19959;-75
2023/05/13 20:40:03;;;;;;;;;;;20.50;99.90;;;;;;8364996;28;19981;-74
2023/05/13 20:44:05;;;;;;;;;;;20.40;99.90;;;;;;8365996;28;19968;-75
2023/05/13 20:48:08;;;;;;;;;;;20.40;99.90;;;;;;8368347;28;20479;-75
2023/05/13 20:52:10;;;;;;;;;;;20.30;99.90;;;;;;8364998;28;19925;-74
2023/05/13 20:56:11;;;;;;;;;;;20.20;99.90;;;;;;8363812;28;19928;-74
2023/05/13 21:00:13;;;;;;;;;;;20.10;99.90;;;;;;8366877;28;19983;-74
2023/05/13 21:04:15;;;;;;;;;;;20.10;99.90;;;;;;8371884;28;19924;-74
2023/05/13 21:08:16;;;;;;;;;;;20.00;99.90;;;;;;8392641;28;19933;-74
2023/05/13 21:12:18;;;;;;;;;;;19.90;99.90;;;;;;8384575;28;20398;-74
2023/05/13 21:16:20;;;;;;;;;;;19.90;99.90;;;;;;8378267;28;20011;-74
2023/05/13 21:20:21;;;;;;;;;;;19.80;99.90;;;;;;8376188;28;20339;-74
2023/05/13 21:24:23;;;;;;;;;;;19.70;99.90;;;;;;8366899;28;19928;-74
2023/05/13 21:28:25;;;;;;;;;;;19.60;99.90;;;;;;8374889;28;19972;-74
2023/05/13 21:32:26;;;;;;;;;;;19.50;99.90;;;;;;8390150;28;20387;-74
2023/05/13 21:36:28;;;;;;;;;;;19.40;99.90;;;;;;8372112;28;19931;-74
2023/05/13 21:40:30;;;;;;;;;;;19.40;99.90;;;;;;8384296;28;19925;-74
2023/05/13 21:44:31;;;;;;;;;;;19.30;99.90;;;;;;8387343;28;19924;-74
2023/05/13 21:48:33;;;;;;;;;;;19.20;99.90;;;;;;8387680;28;19974;-73
2023/05/13 21:52:34;;;;;;;;;;;19.20;99.90;;;;;;8370377;28;19925;-73
2023/05/13 21:56:36;;;;;;;;;;;19.10;99.90;;;;;;8386893;28;20437;-73
2023/05/13 22:00:38;;;;;;;;;;;19.00;99.90;;;;;;8382731;28;20399;-73
2023/05/13 22:04:40;;;;;;;;;;;18.90;99.90;;;;;;8378799;28;20012;-73
2023/05/13 22:08:41;;;;;;;;;;;18.90;99.90;;;;;;8370973;28;19924;-74
2023/05/13 22:12:45;;;;;;;;;;;18.80;99.90;;;;;;8388451;28;21293;-74
2023/05/13 22:16:46;;;;;;;;;;;18.80;99.90;;;;;;8378918;28;20375;-74
2023/05/13 22:20:55;;;;;;;;;;;18.70;99.90;;;;;;8370900;28;19931;-73
2023/05/13 22:24:56;;;;;;;;;;;18.60;99.90;;;;;;8377460;28;20020;-73
2023/05/13 22:28:58;;;;;;;;;;;18.50;99.90;;;;;;8389405;28;19928;-73
2023/05/13 22:33:00;;;;;;;;;;;18.50;99.90;;;;;;8387007;28;19974;-73
2023/05/13 22:37:01;;;;;;;;;;;18.40;99.90;;;;;;8381701;28;20279;-74
2023/05/13 22:41:03;;;;;;;;;;;18.30;99.90;;;;;;8379899;28;20335;-73
2023/05/13 22:45:05;;;;;;;;;;;18.20;99.90;;;;;;8388084;28;19932;-73
2023/05/13 22:49:08;;;;;;;;;;;18.10;99.90;;;;;;8390077;28;19925;-74
2023/05/13 22:53:09;;;;;;;;;;;18.10;99.90;;;;;;8387104;28;19931;-73
2023/05/13 22:57:11;;;;;;;;;;;18.00;99.90;;;;;;8388380;28;20341;-74
2023/05/13 23:01:13;;;;;;;;;;;17.90;99.90;;;;;;8384253;28;19929;-73
2023/05/13 23:05:15;;;;;;;;;;;17.80;99.90;;;;;;8366374;28;19929;-73
2023/05/13 23:09:16;;;;;;;;;;;17.80;99.90;;;;;;8387432;28;19929;-74
2023/05/13 23:13:18;;;;;;;;;;;17.70;99.90;;;;;;8385532;28;19928;-74
2023/05/13 23:17:20;;;;;;;;;;;17.60;99.90;;;;;;8382460;28;20276;-74
2023/05/13 23:21:21;;;;;;;;;;;17.50;99.90;;;;;;8386685;28;19938;-74
2023/05/13 23:25:23;;;;;;;;;;;17.50;99.90;;;;;;8378992;28;20920;-74
2023/05/13 23:29:26;;;;;;;;;;;17.50;99.90;;;;;;8383699;28;19932;-74
2023/05/13 23:33:28;;;;;;;;;;;17.40;99.90;;;;;;8384548;28;19925;-74
2023/05/13 23:37:30;;;;;;;;;;;17.30;99.90;;;;;;8368090;28;19932;-74